createdAt,value
2023-03-29T00:00:21.095Z,-291.64
2023-03-29T00:01:24.391Z,-312.12
2023-03-29T00:02:27.687Z,299.72
2023-03-29T00:03:30.988Z,-322.36
2023-03-29T00:04:34.279Z,-245.56
2023-03-29T00:05:37.587Z,-115
2023-03-29T00:06:40.854Z,5.33
2023-03-29T00:07:44.135Z,25.81
2023-03-29T00:08:47.422Z,74.45
2023-03-29T00:09:50.737Z,2.77
2023-03-29T00:10:54.059Z,-25.4
2023-03-29T00:11:56.324Z,-12.6
2023-03-29T00:12:59.609Z,38.61
2023-03-29T00:14:02.917Z,-33.08
2023-03-29T00:15:06.215Z,-25.4
2023-03-29T00:16:09.506Z,0.21
2023-03-29T00:17:12.785Z,-45.88
2023-03-29T00:18:16.068Z,-30.52
2023-03-29T00:19:18.404Z,-33.08
2023-03-29T00:20:20.703Z,-35.64
2023-03-29T00:21:23.979Z,-7.48
2023-03-29T00:22:26.311Z,-40.76
2023-03-29T00:23:28.616Z,-125.24
2023-03-29T00:24:30.933Z,-76.6
2023-03-29T00:25:34.202Z,-22.84
2023-03-29T00:26:37.540Z,-15.16
2023-03-29T00:27:40.819Z,-33.08
2023-03-29T00:29:47.390Z,-20.28
2023-03-29T00:30:50.682Z,-56.12
2023-03-29T00:31:53.986Z,-43.32
2023-03-29T00:32:57.262Z,-30.52
2023-03-29T00:34:00.554Z,-15.16
2023-03-29T00:35:03.835Z,-35.64
2023-03-29T00:36:07.138Z,-58.68
2023-03-29T00:37:10.446Z,-48.44
2023-03-29T00:38:12.744Z,-45.88
2023-03-29T00:39:16.030Z,-27.96
2023-03-29T00:40:19.311Z,-38.2
2023-03-29T00:41:22.678Z,-102.2
2023-03-29T00:42:25.901Z,-45.88
2023-03-29T00:43:29.206Z,-84.28
2023-03-29T00:44:32.501Z,-150.84
2023-03-29T00:45:34.819Z,-148.28
2023-03-29T00:46:37.437Z,-222.52
2023-03-29T00:47:39.419Z,-143.16
2023-03-29T00:48:41.721Z,-104.76
2023-03-29T00:49:45.016Z,-102.2
2023-03-29T00:50:48.339Z,-63.8
2023-03-29T00:51:51.613Z,-63.8
2023-03-29T00:52:54.880Z,-130.36
2023-03-29T00:53:58.205Z,-94.52
2023-03-29T00:55:01.494Z,-115
2023-03-29T00:56:04.801Z,-89.4
2023-03-29T00:57:08.689Z,-117.56
2023-03-29T00:58:11.986Z,-150.84
2023-03-29T00:59:15.274Z,-130.36
2023-03-29T01:00:18.567Z,-184.12
2023-03-29T01:01:21.863Z,-286.52
2023-03-29T01:02:24.161Z,-296.76
2023-03-29T01:03:27.451Z,-243
2023-03-29T01:04:30.779Z,-202.04
2023-03-29T01:05:34.038Z,-225.08
2023-03-29T01:06:37.338Z,-232.76
2023-03-29T01:07:40.672Z,-296.76
2023-03-29T01:08:43.935Z,-253.24
2023-03-29T01:09:46.274Z,-232.76
2023-03-29T01:11:51.830Z,-225.08
2023-03-29T01:12:55.127Z,-117.56
2023-03-29T01:13:58.414Z,-153.4
2023-03-29T01:15:01.762Z,-132.92
2023-03-29T01:16:05.751Z,-120.12
2023-03-29T01:17:09.068Z,-153.4
2023-03-29T01:18:12.322Z,-150.84
2023-03-29T01:19:15.624Z,-122.68
2023-03-29T01:20:18.921Z,-104.76
2023-03-29T01:21:22.195Z,-148.28
2023-03-29T01:22:25.674Z,-122.68
2023-03-29T01:23:28.779Z,-115
2023-03-29T01:24:31.157Z,-125.24
2023-03-29T01:25:34.389Z,-91.96
2023-03-29T01:26:37.680Z,-94.52
2023-03-29T01:27:40.963Z,-130.36
2023-03-29T01:28:44.261Z,-107.32
2023-03-29T01:29:47.564Z,-97.08
2023-03-29T01:30:50.840Z,-102.2
2023-03-29T01:31:54.135Z,-115
2023-03-29T01:32:56.445Z,0
2023-03-29T01:33:58.781Z,-63.8
2023-03-29T01:35:01.112Z,-79.16
2023-03-29T01:36:03.377Z,0
2023-03-29T01:37:06.675Z,33.49
2023-03-29T01:38:08.972Z,64.21
2023-03-29T01:39:11.300Z,-7.48
2023-03-29T01:40:14.590Z,-30.52
2023-03-29T01:41:17.867Z,-10.04
2023-03-29T01:42:21.226Z,-30.52
2023-03-29T01:43:24.452Z,-63.8
2023-03-29T01:44:27.734Z,-63.8
2023-03-29T01:45:31.030Z,-45.88
2023-03-29T01:46:34.344Z,-38.2
2023-03-29T01:47:37.641Z,-76.6
2023-03-29T01:48:40.917Z,-53.56
2023-03-29T01:49:44.211Z,-109.88
2023-03-29T01:50:47.491Z,-76.6
2023-03-29T01:51:50.798Z,-61.24
2023-03-29T01:52:53.109Z,-86.84
2023-03-29T01:53:56.394Z,-76.6
2023-03-29T01:54:59.701Z,-63.8
2023-03-29T01:56:03.014Z,-74.04
2023-03-29T01:57:06.294Z,-130.36
2023-03-29T01:58:09.578Z,-127.8
2023-03-29T01:59:12.871Z,-148.28
2023-03-29T02:00:15.195Z,-138.04
2023-03-29T02:01:17.501Z,-102.2
2023-03-29T02:02:19.813Z,-138.04
2023-03-29T02:03:22.108Z,-143.16
2023-03-29T02:04:25.428Z,-125.24
2023-03-29T02:05:28.705Z,-145.72
2023-03-29T02:06:32.008Z,-155.96
2023-03-29T02:07:35.286Z,-76.6
2023-03-29T02:08:38.610Z,-84.28
2023-03-29T02:09:41.876Z,-53.56
2023-03-29T02:10:45.155Z,-53.56
2023-03-29T02:11:48.468Z,-153.4
2023-03-29T02:12:51.813Z,-212.28
2023-03-29T02:13:55.053Z,-258.36
2023-03-29T02:14:58.337Z,-209.72
2023-03-29T02:16:01.623Z,-122.68
2023-03-29T02:17:03.947Z,-38.2
2023-03-29T02:18:07.216Z,146.13
2023-03-29T02:19:10.514Z,194.77
2023-03-29T02:20:13.825Z,176.85
2023-03-29T02:21:17.100Z,179.41
2023-03-29T02:22:20.374Z,205.01
2023-03-29T02:23:23.724Z,197.33
2023-03-29T02:24:26.009Z,115.41
2023-03-29T02:25:28.306Z,84.69
2023-03-29T02:26:30.620Z,117.97
2023-03-29T02:27:32.923Z,128.21
2023-03-29T02:28:36.229Z,117.97
2023-03-29T02:29:39.500Z,107.73
2023-03-29T02:30:42.804Z,66.77
2023-03-29T02:31:46.088Z,64.21
2023-03-29T02:32:49.377Z,89.81
2023-03-29T02:33:52.684Z,46.29
2023-03-29T02:34:55.976Z,36.05
2023-03-29T02:35:59.282Z,-2.36
2023-03-29T02:37:03.258Z,5.33
2023-03-29T02:38:06.556Z,-35.64
2023-03-29T02:39:09.857Z,-68.92
2023-03-29T02:40:13.159Z,-120.12
2023-03-29T02:41:15.449Z,-94.52
2023-03-29T02:42:18.734Z,-109.88
2023-03-29T02:43:22.068Z,-112.44
2023-03-29T02:44:25.338Z,-104.76
2023-03-29T02:45:28.611Z,-132.92
2023-03-29T02:46:31.899Z,-140.6
2023-03-29T02:47:35.192Z,-107.32
2023-03-29T02:48:37.515Z,-104.76
2023-03-29T02:49:39.820Z,-155.96
2023-03-29T02:50:42.194Z,-135.48
2023-03-29T02:51:44.448Z,-74.04
2023-03-29T02:52:47.723Z,-173.88
2023-03-29T02:53:51.010Z,-140.6
2023-03-29T02:54:54.317Z,-194.36
2023-03-29T02:55:57.610Z,-158.52
2023-03-29T02:57:00.909Z,-120.12
2023-03-29T02:58:04.187Z,-109.88
2023-03-29T02:59:07.486Z,-153.4
2023-03-29T03:00:10.781Z,-173.88
2023-03-29T03:01:14.079Z,-189.24
2023-03-29T03:02:17.365Z,-240.44
2023-03-29T03:03:20.647Z,-181.56
2023-03-29T03:04:23.954Z,-102.2
2023-03-29T03:05:26.256Z,-204.6
2023-03-29T03:06:29.553Z,-225.08
2023-03-29T03:07:32.842Z,-217.4
2023-03-29T03:08:36.126Z,-161.08
2023-03-29T03:09:39.418Z,-125.24
2023-03-29T03:10:42.718Z,-161.08
2023-03-29T03:11:46.038Z,-181.56
2023-03-29T03:12:48.316Z,-115
2023-03-29T03:13:50.617Z,-122.68
2023-03-29T03:14:52.939Z,-107.32
2023-03-29T03:15:55.260Z,-166.2
2023-03-29T03:16:58.529Z,-130.36
2023-03-29T03:18:01.817Z,-112.44
2023-03-29T03:19:05.120Z,-84.28
2023-03-29T03:20:08.415Z,-71.48
2023-03-29T03:21:11.711Z,-51
2023-03-29T03:22:14.996Z,-107.32
2023-03-29T03:23:18.305Z,-53.56
2023-03-29T03:24:21.586Z,-51
2023-03-29T03:25:24.869Z,-76.6
2023-03-29T03:26:28.159Z,-38.2
2023-03-29T03:27:31.467Z,-53.56
2023-03-29T03:28:34.742Z,-56.12
2023-03-29T03:29:37.093Z,-48.44
2023-03-29T03:30:40.354Z,-48.44
2023-03-29T03:31:43.651Z,-7.48
2023-03-29T03:32:46.926Z,-12.6
2023-03-29T03:33:50.218Z,-63.8
2023-03-29T03:34:53.507Z,-43.32
2023-03-29T03:35:56.813Z,-48.44
2023-03-29T03:36:59.117Z,-33.08
2023-03-29T03:38:01.444Z,-33.08
2023-03-29T03:39:03.719Z,-91.96
2023-03-29T03:40:06.664Z,-12.6
2023-03-29T03:41:09.921Z,-2.36
2023-03-29T03:42:13.220Z,-40.76
2023-03-29T03:43:16.510Z,-76.6
2023-03-29T03:44:19.822Z,-33.08
2023-03-29T03:45:23.083Z,-7.48
2023-03-29T03:46:26.389Z,-20.28
2023-03-29T03:47:29.669Z,-48.44
2023-03-29T03:48:32.970Z,-45.88
2023-03-29T03:49:36.264Z,-38.2
2023-03-29T03:50:39.559Z,-71.48
2023-03-29T03:51:42.839Z,-56.12
2023-03-29T03:52:46.136Z,-51
2023-03-29T03:53:48.436Z,-40.76
2023-03-29T03:54:51.744Z,-25.4
2023-03-29T03:55:54.044Z,-38.2
2023-03-29T03:56:57.346Z,0
2023-03-29T03:58:00.632Z,-45.88
2023-03-29T03:59:04.008Z,-40.76
2023-03-29T04:00:07.307Z,-40.76
2023-03-29T04:01:09.616Z,-33.08
2023-03-29T04:02:11.936Z,-38.2
2023-03-29T04:03:14.259Z,-33.08
2023-03-29T04:04:16.547Z,-30.52
2023-03-29T04:05:19.848Z,-35.64
2023-03-29T04:06:23.137Z,-48.44
2023-03-29T04:07:26.432Z,-51
2023-03-29T04:08:29.717Z,-51
2023-03-29T04:09:32.995Z,-61.24
2023-03-29T04:10:36.334Z,-66.36
2023-03-29T04:11:39.614Z,-25.4
2023-03-29T04:12:42.882Z,-35.64
2023-03-29T04:13:46.179Z,-35.64
2023-03-29T04:14:49.507Z,-22.84
2023-03-29T04:15:52.762Z,-33.08
2023-03-29T04:16:56.043Z,-33.08
2023-03-29T04:17:58.371Z,-10.04
2023-03-29T04:19:01.699Z,-35.64
2023-03-29T04:20:04.957Z,-51
2023-03-29T04:21:08.364Z,-35.64
2023-03-29T04:22:11.526Z,-79.16
2023-03-29T04:23:14.839Z,-81.72
2023-03-29T04:24:18.110Z,-74.04
2023-03-29T04:25:20.427Z,-91.96
2023-03-29T04:26:22.723Z,-107.32
2023-03-29T04:27:26.030Z,-68.92
2023-03-29T04:28:28.341Z,-58.68
2023-03-29T04:29:30.637Z,-48.44
2023-03-29T04:30:33.944Z,-117.56
2023-03-29T04:31:37.220Z,-104.76
2023-03-29T04:32:40.521Z,-112.44
2023-03-29T04:33:43.822Z,-68.92
2023-03-29T04:34:47.107Z,-112.44
2023-03-29T04:35:50.396Z,-71.48
2023-03-29T04:36:53.696Z,-97.08
2023-03-29T04:37:56.990Z,-143.16
2023-03-29T04:39:00.277Z,-150.84
2023-03-29T04:40:04.042Z,-209.72
2023-03-29T04:41:07.346Z,-148.28
2023-03-29T04:42:10.623Z,-153.4
2023-03-29T04:43:12.923Z,-150.84
2023-03-29T04:44:16.225Z,-135.48
2023-03-29T04:45:19.539Z,-130.36
2023-03-29T04:46:22.802Z,-140.6
2023-03-29T04:47:26.125Z,-140.6
2023-03-29T04:48:29.386Z,-94.52
2023-03-29T04:49:32.678Z,-102.2
2023-03-29T04:50:34.998Z,-125.24
2023-03-29T04:51:37.291Z,-176.44
2023-03-29T04:52:40.575Z,-125.24
2023-03-29T04:53:43.883Z,-158.52
2023-03-29T04:54:47.161Z,-99.64
2023-03-29T04:55:50.454Z,-117.56
2023-03-29T04:56:53.764Z,-112.44
2023-03-29T04:57:57.055Z,-71.48
2023-03-29T04:59:00.338Z,-127.8
2023-03-29T05:00:04.144Z,-71.48
2023-03-29T05:01:07.457Z,-148.28
2023-03-29T05:02:10.739Z,-20.28
2023-03-29T05:03:14.043Z,10.45
2023-03-29T05:04:17.341Z,10.45
2023-03-29T05:05:19.632Z,20.69
2023-03-29T05:06:22.932Z,-17.72
2023-03-29T05:07:26.217Z,38.61
2023-03-29T05:08:29.524Z,0
2023-03-29T05:09:32.822Z,41.17
2023-03-29T05:10:36.097Z,56.53
2023-03-29T05:11:39.380Z,2.77
2023-03-29T05:12:41.706Z,7.89
2023-03-29T05:13:44.015Z,20.69
2023-03-29T05:14:46.311Z,20.69
2023-03-29T05:15:48.637Z,38.61
2023-03-29T05:16:51.944Z,18.13
2023-03-29T05:17:55.218Z,7.89
2023-03-29T05:18:58.515Z,2.77
2023-03-29T05:20:01.796Z,15.57
2023-03-29T05:21:05.095Z,33.49
2023-03-29T05:22:08.386Z,38.61
2023-03-29T05:23:11.670Z,25.81
2023-03-29T05:24:14.978Z,36.05
2023-03-29T05:25:18.250Z,41.17
2023-03-29T05:26:21.552Z,20.69
2023-03-29T05:27:24.840Z,36.05
2023-03-29T05:28:28.129Z,38.61
2023-03-29T05:29:30.442Z,64.21
2023-03-29T05:30:33.730Z,28.37
2023-03-29T05:31:37.024Z,56.53
2023-03-29T05:32:40.311Z,38.61
2023-03-29T05:33:43.607Z,43.73
2023-03-29T05:34:46.882Z,38.61
2023-03-29T05:35:50.195Z,51.41
2023-03-29T05:36:52.515Z,33.49
2023-03-29T05:37:54.807Z,61.65
2023-03-29T05:38:58.099Z,53.97
2023-03-29T05:40:00.421Z,0.21
2023-03-29T05:41:02.786Z,-10.04
2023-03-29T05:42:06.011Z,-4.92
2023-03-29T05:43:09.312Z,7.89
2023-03-29T05:44:12.585Z,23.25
2023-03-29T05:45:15.865Z,15.57
2023-03-29T05:46:19.183Z,-4.92
2023-03-29T05:47:22.471Z,5.33
2023-03-29T05:48:25.766Z,10.45
2023-03-29T05:49:29.061Z,2.77
2023-03-29T05:50:32.336Z,38.61
2023-03-29T05:51:35.657Z,5.33
2023-03-29T05:52:38.921Z,10.45
2023-03-29T05:53:42.203Z,30.93
2023-03-29T05:54:45.628Z,13.01
2023-03-29T05:55:48.921Z,28.37
2023-03-29T05:56:52.212Z,-4.92
2023-03-29T05:57:55.511Z,0.21
2023-03-29T05:58:58.805Z,7.89
2023-03-29T06:00:02.101Z,-4.92
2023-03-29T06:01:05.397Z,10.45
2023-03-29T06:02:07.704Z,0.21
2023-03-29T06:03:10.032Z,13.01
2023-03-29T06:04:12.324Z,0.21
2023-03-29T06:05:14.622Z,5.33
2023-03-29T06:06:17.935Z,-17.72
2023-03-29T06:07:21.221Z,13.01
2023-03-29T06:08:24.514Z,33.49
2023-03-29T06:09:27.786Z,-38.2
2023-03-29T06:10:31.082Z,25.81
2023-03-29T06:11:34.383Z,97.49
2023-03-29T06:12:37.673Z,-10.04
2023-03-29T06:13:40.969Z,-61.24
2023-03-29T06:14:44.251Z,10.45
2023-03-29T06:15:47.548Z,-22.84
2023-03-29T06:16:50.837Z,0.21
2023-03-29T06:17:54.153Z,-12.6
2023-03-29T06:19:59.732Z,-33.08
2023-03-29T06:21:03.031Z,-15.16
2023-03-29T06:22:06.324Z,-53.56
2023-03-29T06:23:09.603Z,-17.72
2023-03-29T06:24:12.933Z,-51
2023-03-29T06:25:16.211Z,-33.08
2023-03-29T06:26:19.508Z,-25.4
2023-03-29T06:27:21.793Z,-10.04
2023-03-29T06:29:27.394Z,-20.28
2023-03-29T06:30:30.681Z,-17.72
2023-03-29T06:31:33.005Z,-4.92
2023-03-29T06:32:35.361Z,-45.88
2023-03-29T06:33:38.613Z,-127.8
2023-03-29T06:34:41.904Z,-125.24
2023-03-29T06:35:45.202Z,-153.4
2023-03-29T06:36:48.479Z,-112.44
2023-03-29T06:37:51.777Z,-148.28
2023-03-29T06:38:55.065Z,-86.84
2023-03-29T06:39:58.346Z,-81.72
2023-03-29T06:41:01.654Z,-86.84
2023-03-29T06:42:04.930Z,-166.2
2023-03-29T06:43:08.243Z,-81.72
2023-03-29T06:44:11.526Z,-48.44
2023-03-29T06:45:14.830Z,-132.92
2023-03-29T06:46:17.119Z,-115
2023-03-29T06:47:20.423Z,-81.72
2023-03-29T06:48:23.719Z,-94.52
2023-03-29T06:49:27.018Z,-91.96
2023-03-29T06:50:30.284Z,-45.88
2023-03-29T06:51:33.577Z,-71.48
2023-03-29T06:52:36.892Z,-7.48
2023-03-29T06:53:39.205Z,-10.04
2023-03-29T06:54:41.494Z,7.89
2023-03-29T06:55:43.805Z,33.49
2023-03-29T06:56:46.127Z,5.33
2023-03-29T06:57:49.413Z,71.89
2023-03-29T06:58:52.746Z,48.85
2023-03-29T06:59:56.006Z,105.17
2023-03-29T07:00:59.268Z,33.49
2023-03-29T07:02:02.574Z,61.65
2023-03-29T07:03:05.873Z,56.53
2023-03-29T07:04:09.169Z,43.73
2023-03-29T07:05:12.460Z,10.45
2023-03-29T07:06:15.751Z,-17.72
2023-03-29T07:07:19.040Z,18.13
2023-03-29T07:08:22.470Z,-45.88
2023-03-29T07:09:25.629Z,-33.08
2023-03-29T07:10:27.918Z,-25.4
2023-03-29T07:12:34.515Z,-12.6
2023-03-29T07:13:37.857Z,23.25
2023-03-29T07:14:41.081Z,33.49
2023-03-29T07:15:44.466Z,23.25
2023-03-29T07:16:47.670Z,20.69
2023-03-29T07:17:50.961Z,20.69
2023-03-29T07:18:53.282Z,-27.96
2023-03-29T07:20:58.869Z,13.01
2023-03-29T07:22:01.213Z,-4.92
2023-03-29T07:23:03.500Z,-7.48
2023-03-29T07:24:06.807Z,10.45
2023-03-29T07:25:10.095Z,15.57
2023-03-29T07:26:13.376Z,-7.48
2023-03-29T07:27:15.711Z,28.37
2023-03-29T07:28:18.975Z,20.69
2023-03-29T07:29:22.272Z,82.13
2023-03-29T07:30:25.565Z,36.05
2023-03-29T07:31:28.848Z,77.01
2023-03-29T07:32:32.156Z,43.73
2023-03-29T07:33:35.441Z,33.49
2023-03-29T07:34:38.747Z,56.53
2023-03-29T07:35:42.045Z,25.81
2023-03-29T07:36:45.318Z,25.81
2023-03-29T07:37:48.611Z,-17.72
2023-03-29T07:38:51.912Z,-7.48
2023-03-29T07:39:55.203Z,41.35
2023-03-29T07:40:57.513Z,-7.48
2023-03-29T07:42:00.802Z,0.21
2023-03-29T07:43:04.094Z,2.77
2023-03-29T07:44:06.399Z,0.21
2023-03-29T07:45:08.711Z,-138.04
2023-03-29T07:46:11.992Z,-158.52
2023-03-29T07:47:15.280Z,-181.56
2023-03-29T07:48:17.597Z,-171.32
2023-03-29T07:49:19.910Z,-176.44
2023-03-29T07:50:23.311Z,-155.96
2023-03-29T07:51:26.545Z,-135.48
2023-03-29T07:52:29.782Z,-130.36
2023-03-29T07:53:33.108Z,-130.36
2023-03-29T07:54:36.374Z,-145.72
2023-03-29T07:55:39.664Z,-125.24
2023-03-29T07:56:42.951Z,-125.24
2023-03-29T07:57:46.247Z,-120.12
2023-03-29T07:58:49.535Z,-89.4
2023-03-29T07:59:52.838Z,-104.76
2023-03-29T08:00:56.117Z,-91.96
2023-03-29T08:01:59.401Z,-97.08
2023-03-29T08:03:01.723Z,-158.52
2023-03-29T08:04:05.332Z,-148.28
2023-03-29T08:06:11.866Z,-135.48
2023-03-29T08:07:15.175Z,-127.8
2023-03-29T08:08:18.473Z,-127.8
2023-03-29T08:09:21.759Z,-109.88
2023-03-29T08:10:25.062Z,-120.12
2023-03-29T08:11:27.387Z,-117.56
2023-03-29T08:12:29.703Z,-120.12
2023-03-29T08:13:31.989Z,-112.44
2023-03-29T08:14:34.301Z,-86.84
2023-03-29T08:15:37.611Z,-102.2
2023-03-29T08:16:40.898Z,-138.04
2023-03-29T08:17:44.170Z,-120.12
2023-03-29T08:18:47.476Z,-166.2
2023-03-29T08:19:50.754Z,-171.32
2023-03-29T08:20:54.058Z,-181.56
2023-03-29T08:21:57.356Z,-191.8
2023-03-29T08:23:00.632Z,-250.68
2023-03-29T08:24:03.921Z,263.88
2023-03-29T08:25:07.218Z,146.12
2023-03-29T08:26:10.506Z,-189.25
2023-03-29T08:27:13.801Z,-230.21
2023-03-29T08:28:16.118Z,-266.05
2023-03-29T08:29:19.412Z,-232.77
2023-03-29T08:30:22.704Z,-184.13
2023-03-29T08:31:26.002Z,-168.77
2023-03-29T08:32:29.277Z,-140.61
2023-03-29T08:33:32.571Z,-4.93
2023-03-29T08:34:35.890Z,18.12
2023-03-29T08:35:38.188Z,112.84
2023-03-29T08:36:40.537Z,112.84
2023-03-29T08:37:43.772Z,130.76
2023-03-29T08:38:47.078Z,138.44
2023-03-29T08:39:50.474Z,151.24
2023-03-29T08:40:53.728Z,151.24
2023-03-29T08:41:56.986Z,169.16
2023-03-29T08:43:00.249Z,143.56
2023-03-29T08:44:03.524Z,110.28
2023-03-29T08:45:06.818Z,0
2023-03-29T08:46:10.120Z,0
2023-03-29T08:47:13.417Z,271.56
2023-03-29T08:48:16.692Z,322.76
2023-03-29T08:49:19.996Z,-304.44
2023-03-29T08:50:22.297Z,-296.76
2023-03-29T08:51:25.605Z,-266.04
2023-03-29T08:52:28.886Z,-248.12
2023-03-29T08:53:32.172Z,-243
2023-03-29T08:54:35.467Z,-219.96
2023-03-29T08:55:38.760Z,-194.36
2023-03-29T08:56:42.058Z,-184.12
2023-03-29T08:57:44.373Z,-145.72
2023-03-29T08:58:46.670Z,-176.44
2023-03-29T08:59:48.980Z,-176.44
2023-03-29T09:00:51.282Z,-168.76
2023-03-29T09:01:54.585Z,-153.4
2023-03-29T09:02:56.895Z,-150.84
2023-03-29T09:03:59.201Z,-143.16
2023-03-29T09:05:02.489Z,-145.72
2023-03-29T09:06:05.783Z,-158.52
2023-03-29T09:07:09.086Z,-171.32
2023-03-29T09:08:12.370Z,-168.76
2023-03-29T09:09:15.660Z,-168.76
2023-03-29T09:10:18.976Z,-173.88
2023-03-29T09:11:22.315Z,-168.76
2023-03-29T09:12:25.523Z,-158.52
2023-03-29T09:13:28.819Z,-176.44
2023-03-29T09:14:32.123Z,-176.44
2023-03-29T09:15:35.461Z,-166.2
2023-03-29T09:16:38.715Z,-171.32
2023-03-29T09:17:41.017Z,-176.44
2023-03-29T09:18:44.350Z,-181.56
2023-03-29T09:19:47.583Z,-163.64
2023-03-29T09:20:50.877Z,-130.36
2023-03-29T09:21:54.184Z,-45.88
2023-03-29T09:22:57.474Z,-20.28
2023-03-29T09:24:00.754Z,10.45
2023-03-29T09:25:03.085Z,-10.04
2023-03-29T09:26:06.474Z,0.21
2023-03-29T09:27:08.803Z,2.77
2023-03-29T09:28:12.123Z,-17.72
2023-03-29T09:29:15.413Z,-20.28
2023-03-29T09:30:18.682Z,-4.92
2023-03-29T09:31:21.975Z,-35.64
2023-03-29T09:32:25.362Z,-43.32
2023-03-29T09:33:28.563Z,-58.68
2023-03-29T09:34:31.861Z,-56.12
2023-03-29T09:35:35.155Z,-38.2
2023-03-29T09:36:38.443Z,-20.28
2023-03-29T09:37:41.734Z,-4.92
2023-03-29T09:38:45.015Z,-48.44
2023-03-29T09:39:48.308Z,-22.84
2023-03-29T09:40:50.605Z,-22.84
2023-03-29T09:41:53.905Z,0.21
2023-03-29T09:42:57.206Z,-22.84
2023-03-29T09:44:00.498Z,10.45
2023-03-29T09:45:03.856Z,-25.4
2023-03-29T09:46:07.116Z,-7.48
2023-03-29T09:47:09.404Z,-17.72
2023-03-29T09:48:11.702Z,-25.4
2023-03-29T09:49:14.012Z,-20.28
2023-03-29T09:50:17.304Z,-53.56
2023-03-29T09:51:19.626Z,-45.88
2023-03-29T09:52:22.909Z,-99.64
2023-03-29T09:53:26.209Z,-53.56
2023-03-29T09:54:29.479Z,-33.08
2023-03-29T09:55:32.775Z,5.33
2023-03-29T09:56:36.082Z,-15.16
2023-03-29T09:57:39.356Z,5.33
2023-03-29T09:58:42.669Z,-40.76
2023-03-29T09:59:45.951Z,-117.56
2023-03-29T10:00:49.269Z,-81.72
2023-03-29T10:01:52.538Z,-68.92
2023-03-29T10:02:55.825Z,-20.28
2023-03-29T10:03:59.135Z,18.13
2023-03-29T10:05:01.438Z,43.73
2023-03-29T10:06:04.719Z,43.73
2023-03-29T10:07:08.009Z,87.25
2023-03-29T10:08:11.308Z,-4.92
2023-03-29T10:09:14.612Z,0.21
2023-03-29T10:10:17.881Z,48.85
2023-03-29T10:11:20.191Z,79.57
2023-03-29T10:12:22.511Z,110.29
2023-03-29T10:13:25.794Z,102.61
2023-03-29T10:14:28.118Z,110.29
2023-03-29T10:15:30.419Z,153.81
2023-03-29T10:16:33.702Z,110.29
2023-03-29T10:17:36.988Z,82.13
2023-03-29T10:18:40.289Z,77.01
2023-03-29T10:19:43.577Z,79.57
2023-03-29T10:20:46.865Z,110.29
2023-03-29T10:21:50.204Z,107.73
2023-03-29T10:22:53.445Z,43.73
2023-03-29T10:23:56.751Z,-15.16
2023-03-29T10:25:00.038Z,-35.64
2023-03-29T10:26:03.332Z,-4.92
2023-03-29T10:27:06.656Z,-27.96
2023-03-29T10:28:09.933Z,-30.52
2023-03-29T10:29:12.224Z,-22.84
2023-03-29T10:30:15.512Z,-30.52
2023-03-29T10:31:19.007Z,-15.16
2023-03-29T10:32:22.109Z,-17.72
2023-03-29T10:33:25.414Z,2.77
2023-03-29T10:34:28.705Z,2.77
2023-03-29T10:35:31.986Z,-130.36
2023-03-29T10:36:34.289Z,202.44
2023-03-29T10:37:36.624Z,-4.93
2023-03-29T10:38:38.912Z,48.84
2023-03-29T10:39:41.239Z,133.32
2023-03-29T10:40:44.515Z,156.36
2023-03-29T10:41:47.812Z,179.4
2023-03-29T10:42:51.104Z,286.92
2023-03-29T10:43:54.387Z,-312.12
2023-03-29T10:44:57.690Z,-319.8
2023-03-29T10:46:00.982Z,312.52
2023-03-29T10:47:04.257Z,-322.36
2023-03-29T10:48:07.583Z,-237.88
2023-03-29T10:49:10.845Z,-273.72
2023-03-29T10:50:14.122Z,-268.6
2023-03-29T10:51:17.441Z,-237.88
2023-03-29T10:52:20.754Z,-283.96
2023-03-29T10:53:23.021Z,-299.32
2023-03-29T10:54:26.327Z,-296.76
2023-03-29T10:55:29.645Z,-291.64
2023-03-29T10:56:32.904Z,-271.16
2023-03-29T10:57:36.216Z,-230.2
2023-03-29T10:58:38.519Z,-166.2
2023-03-29T10:59:41.817Z,-33.08
2023-03-29T11:00:44.135Z,217.81
2023-03-29T11:01:46.416Z,253.65
2023-03-29T11:02:48.742Z,-51
2023-03-29T11:03:51.028Z,20.69
2023-03-29T11:04:54.351Z,133.33
2023-03-29T11:05:57.649Z,192.21
2023-03-29T11:07:00.927Z,89.81
2023-03-29T11:08:04.211Z,174.29
2023-03-29T11:09:07.504Z,-324.91
2023-03-29T11:10:10.778Z,-327.47
2023-03-29T11:11:14.208Z,279.25
2023-03-29T11:12:17.386Z,312.53
2023-03-29T11:13:20.735Z,307.41
2023-03-29T11:14:23.941Z,261.33
2023-03-29T11:15:27.321Z,230.61
2023-03-29T11:16:30.548Z,222.93
2023-03-29T11:17:32.846Z,279.25
2023-03-29T11:18:36.146Z,261.33
2023-03-29T11:19:39.456Z,245.97
2023-03-29T11:20:42.738Z,253.65
2023-03-29T11:21:46.052Z,274.13
2023-03-29T11:22:49.332Z,-324.91
2023-03-29T11:23:52.602Z,266.45
2023-03-29T11:24:54.909Z,263.89
2023-03-29T11:25:57.226Z,256.21
2023-03-29T11:26:59.545Z,233.17
2023-03-29T11:28:01.845Z,294.61
2023-03-29T11:29:05.144Z,248.53
2023-03-29T11:30:08.460Z,269.01
2023-03-29T11:31:11.709Z,205.01
2023-03-29T11:32:15.026Z,215.25
2023-03-29T11:33:18.310Z,248.53
2023-03-29T11:34:21.608Z,225.49
2023-03-29T11:35:24.885Z,217.81
2023-03-29T11:36:28.173Z,212.69
2023-03-29T11:37:31.465Z,207.57
2023-03-29T11:38:34.765Z,205.01
2023-03-29T11:39:38.071Z,210.13
2023-03-29T11:40:41.362Z,210.13
2023-03-29T11:41:43.641Z,222.93
2023-03-29T11:42:46.945Z,225.49
2023-03-29T11:43:50.294Z,199.89
2023-03-29T11:44:53.523Z,202.45
2023-03-29T11:45:56.832Z,197.33
2023-03-29T11:47:00.232Z,238.29
2023-03-29T11:48:03.403Z,212.69
2023-03-29T11:49:05.780Z,228.05
2023-03-29T11:50:08.045Z,222.93
2023-03-29T11:51:10.349Z,230.61
2023-03-29T11:52:12.653Z,220.37
2023-03-29T11:53:15.943Z,245.97
2023-03-29T11:54:19.243Z,315.09
2023-03-29T11:55:22.549Z,-309.55
2023-03-29T11:56:25.823Z,274.13
2023-03-29T11:57:29.119Z,266.45
2023-03-29T11:58:32.385Z,251.09
2023-03-29T11:59:35.676Z,253.65
2023-03-29T12:00:38.970Z,-214.83
2023-03-29T12:01:42.270Z,-253.23
2023-03-29T12:02:45.554Z,248.53
2023-03-29T12:03:48.914Z,274.13
2023-03-29T12:04:52.159Z,251.09
2023-03-29T12:05:54.462Z,325.33
2023-03-29T12:06:57.752Z,-273.71
2023-03-29T12:08:01.048Z,-260.91
2023-03-29T12:09:04.344Z,-258.35
2023-03-29T12:10:07.705Z,-245.55
2023-03-29T12:11:10.916Z,261.33
2023-03-29T12:12:14.219Z,263.89
2023-03-29T12:13:16.530Z,307.41
2023-03-29T12:14:18.825Z,315.09
2023-03-29T12:15:22.143Z,297.17
2023-03-29T12:16:24.441Z,322.77
2023-03-29T12:17:26.750Z,-327.47
2023-03-29T12:18:30.036Z,-286.51
2023-03-29T12:19:33.325Z,312.53
2023-03-29T12:20:36.615Z,-327.47
2023-03-29T12:21:39.965Z,289.49
2023-03-29T12:22:43.199Z,-255.79
2023-03-29T12:23:46.527Z,-204.59
2023-03-29T12:24:49.789Z,-184.11
2023-03-29T12:25:53.081Z,0
2023-03-29T12:26:56.370Z,-204.59
2023-03-29T12:27:59.652Z,-294.19
2023-03-29T12:29:02.945Z,0
2023-03-29T12:30:07.160Z,-304.43
2023-03-29T12:31:10.382Z,-263.47
2023-03-29T12:32:13.581Z,-232.75
2023-03-29T12:33:16.884Z,-194.35
2023-03-29T12:34:20.168Z,-163.63
2023-03-29T12:35:23.454Z,-166.19
2023-03-29T12:36:26.742Z,-189.23
2023-03-29T12:37:30.038Z,-199.47
2023-03-29T12:38:32.354Z,-161.07
2023-03-29T12:39:34.654Z,-319.79
2023-03-29T12:40:36.998Z,-258.35
2023-03-29T12:41:39.298Z,-266.03
2023-03-29T12:42:42.563Z,302.29
2023-03-29T12:43:46.006Z,322.77
2023-03-29T12:44:49.166Z,-317.23
2023-03-29T12:45:52.805Z,-186.67
2023-03-29T12:46:55.744Z,-178.99
2023-03-29T12:47:59.025Z,-140.59
2023-03-29T12:49:02.333Z,-143.15
2023-03-29T12:50:05.612Z,-135.47
2023-03-29T12:51:08.916Z,-178.99
2023-03-29T12:52:12.186Z,-176.43
2023-03-29T12:53:15.488Z,-161.07
2023-03-29T12:54:18.781Z,-117.55
2023-03-29T12:55:21.105Z,-140.59
2023-03-29T12:56:24.384Z,-158.51
2023-03-29T12:57:27.677Z,-155.95
2023-03-29T12:58:30.974Z,-173.87
2023-03-29T12:59:34.251Z,-166.19
2023-03-29T13:00:37.706Z,-140.59
2023-03-29T13:01:40.848Z,-132.91
2023-03-29T13:02:43.144Z,-153.39
2023-03-29T13:03:45.463Z,-161.07
2023-03-29T13:04:47.792Z,-209.71
2023-03-29T13:05:50.076Z,-225.07
2023-03-29T13:06:53.389Z,0
2023-03-29T13:07:56.675Z,-217.39
2023-03-29T13:08:59.957Z,-217.39
2023-03-29T13:10:03.262Z,-232.75
2023-03-29T13:11:07.253Z,-204.59
2023-03-29T13:12:10.521Z,-324.91
2023-03-29T13:13:13.809Z,-317.23
2023-03-29T13:14:17.120Z,289.49
2023-03-29T13:15:20.391Z,243.41
2023-03-29T13:16:23.705Z,294.61
2023-03-29T13:17:26.991Z,-263.47